This is the latest recevied weather packets stored in our database for station/object KJ7HSW. If no packets are shown the sender has not sent any weather packets the latest 10 day(s).
| Time | Temp. | Humidity | Pressure | Rain* | Wind** | Luminosity | Snow |
|---|---|---|---|---|---|---|---|
| 1777913104 | 21.67° C | 48% | 1010.2 hPa | 0 mm | - | 544 W/m² | - |
| 1777912800 | 21.67° C | 47% | 1010.3 hPa | 0 mm | - | 476 W/m² | - |
| 1777912495 | 21.11° C | 49% | 1010.2 hPa | 0 mm | - | 499 W/m² | - |
| 1777912193 | 20.56° C | 50% | 1010.4 hPa | 0 mm | - | 464 W/m² | - |
| 1777911889 | 20.56° C | 52% | 1010.3 hPa | 0 mm | - | 444 W/m² | - |
| 1777911585 | 20.56° C | 51% | 1010.3 hPa | 0 mm | - | 407 W/m² | - |
| 1777911281 | 20.56° C | 50% | 1010.4 hPa | 0 mm | - | 415 W/m² | - |
| 1777910979 | 20.56° C | 52% | 1010.3 hPa | 0 mm | - | 446 W/m² | - |
| 1777910677 | 20.56° C | 50% | 1010.3 hPa | 0 mm | - | 444 W/m² | - |
| 1777910373 | 20° C | 52% | 1010.5 hPa | 0 mm | - | 433 W/m² | - |
| 1777910069 | 18.89° C | 54% | 1010.6 hPa | 0 mm | - | 417 W/m² | - |
| 1777909767 | 17.78° C | 60% | 1010.4 hPa | 0 mm | - | 335 W/m² | - |
| 1777909463 | 17.22° C | 58% | 1010.7 hPa | 0 mm | - | 356 W/m² | - |
| 1777909161 | 16.67° C | 63% | 1010.8 hPa | 0 mm | - | 366 W/m² | - |
| 1777908859 | 15.56° C | 68% | 1010.6 hPa | 0 mm | - | 347 W/m² | - |
| 1777908556 | 13.89° C | 77% | 1010.7 hPa | 0 mm | - | 237 W/m² | - |
| 1777908253 | 12.22° C | 82% | 1010.9 hPa | 0 mm | - | 170 W/m² | - |
| 1777907949 | 11.67° C | 86% | 1010.7 hPa | 0 mm | - | 71 W/m² | - |
| 1777907644 | 11.67° C | 85% | 1010.7 hPa | 0 mm | - | 63 W/m² | - |
| 1777907340 | 11.11° C | 87% | 1010.7 hPa | 0 mm | - | 58 W/m² | - |
| 1777907037 | 10.56° C | 89% | 1010.8 hPa | 0 mm | - | 56 W/m² | - |
| 1777906735 | 10.56° C | 90% | 1010.7 hPa | 0 mm | - | 54 W/m² | - |
| 1777906431 | 10° C | 90% | 1010.7 hPa | 0 mm | - | 51 W/m² | - |
| 1777906128 | 10° C | 91% | 1010.9 hPa | 0 mm | - | 49 W/m² | - |
| 1777905824 | 9.44° C | 91% | 1010.8 hPa | 0 mm | - | 46 W/m² | - |
* Rain latest hour (hover to see other rain measurements)
** Current wind speed in m/s (hover to see current wind gust speed)